Share

Friona, TX (79035)

WT_Meso Friona 2NE (MFAST2) Elev 4004 ft | 34.65 °N, 102.69 °W | Change Station

Current weather conditions updated 34 minutes ago

Clear
Clear
68 °F
Feels Like 68 °F
N
21
Wind Variable Wind from SSW
Gusts 28.0 mph
Sunrise 7:15 AM
Sunset 8:25 PM
Moon Waning Gibbous

Tomorrow is forecast to be Warmer than today. Afternoon thunderstorms.

Pressure 30.14 in
Visibility 10.0 miles
Clouds Clear
Dew Point 44 °F
Humidity 42%
Rainfall -999.00 in
Snow Depth Not available.
UV 8 out of 16
Pollen 9.00 out of 12
Air Quality Not available.
Flu Activity Local Activity
METAR KCVN 182115Z AUTO 18017G21KT 10SM CLR 20/08 A3014 RMK AO1

More Conditions Fewer Conditions

Pressure 30.14 in
Visibility 10.0 miles
Clouds Clear
Dew Point 44 °F
Humidity 42%
Rainfall -999.00 in
Snow Depth Not available.
UV 8 out of 16
Pollen 9.00 out of 12
Air Quality Not available.
Flu Activity Local Activity
METAR KCVN 182115Z AUTO 18017G21KT 10SM CLR 20/08 A3014 RMK AO1

More Conditions Fewer Conditions

10-Day Weather Forecast

Almanac

Astronomy

Apr. 18, 2014 Rise Set
Actual Time 7:15 AM CDT 8:25 PM CDT
Civil Twilight 6:49 AM CDT 8:51 PM CDT
Nautical Twilight 6:18 AM CDT 9:22 PM CDT
Astronomical Twilight 5:46 AM CDT 9:55 PM CDT
Moon No Moon Rise 9:44 AM CDT
Length of Visible Light 14h 02m
Length of Day
13h 09m
Tomorrow will be 2m 1s longer.
Waning Gibbous, 85% of the Moon is Illuminated
Today
Waning Gibbous
Apr 22
Last Quarter
Apr 29
New
May 6
First Quarter
May 14
Full

Today's Extremes

State Highs State Lows

Community

  • Spring Chickadee
    Spring Chickadee
  • What's for Lunch?
    What's for Lunch?
  • SUNRISE THROUGH THE TREES.
    SUNRISE THROUGH THE TREES.
  • Dog Wood Blossoms
    Dog Wood Blossoms
  • Morning Light
    Morning Light

WunderPhotos

Upload Photos

1,702,511 photos uploaded!

WunderBlogs® & News

Nearby

Snow Depth

Station Depth Elevation
No new snow has been reported.

Coastal Water Temperatures

Place Temperature
No Stations Reporting

Earthquake Activity

City Distance Mag. Time & Date
No recent earthquake activity has been reported nearby.
Minimum magnitude displayed is 2.5.

Nearby Weather Stations

Station Location Temp. Dew Point Humidity Wind Precip. Elev Updated Type
WT_Meso Friona 2NE, Friona, TX 68 °F 44 °F 42% SSW  at  21 mph 0.00 in / hr 4004 ft 3:55 PM CDT MADIS
RAWS BOOTLEG TX, Friona, TX 69 °F 44 °F 41% SSW  at  21 mph 0.00 in / hr 4058 ft 4:03 PM CDT MADIS

Show More Stations Show Fewer Stations

What do you think?

We're not finished. Please let us know what you like, what you don't like, and what you are still missing.